Terminal Aerodrome Forecast
Issued by NWS Des Moines, IA

Home | Current Version | Previous Version | Text Only | Print | Product List | Glossary On
Versions: 1 2 3 4 5 6 7 8 9 10 11 12 13 14 15 16 17 18 19 20 21 22 23 24 25 26 27 28 29 30 31 32 33 34 35 36 37
093
FTUS43 KDMX 112339
TAFDSM
TAF
KDSM 112339Z 1200/1224 14006KT 1 1/2SM -SN BR BKN025 OVC040
     FM120400 15006KT 6SM -SN BKN020
     FM120800 32009KT P6SM BKN018
     FM121400 33015G22KT P6SM SCT020=

USA.gov is the U.S. government's official web portal to all federal, state and local government web resources and services.